createdAt,value
2023-09-11T00:00:33.374Z,94646.31
2023-09-11T00:02:59.809Z,94641.97
2023-09-11T00:05:26.337Z,94647.75
2023-09-11T00:07:52.834Z,94639.06
2023-09-11T00:10:19.227Z,94637.75
2023-09-11T00:12:45.637Z,94633.38
2023-09-11T00:15:12.249Z,94632.56
2023-09-11T00:17:38.688Z,94630.66
2023-09-11T00:20:11.570Z,94637.75
2023-09-11T00:22:38.213Z,94635.03
2023-09-11T00:25:04.730Z,94628.75
2023-09-11T00:27:31.105Z,94627.38
2023-09-11T00:29:58.780Z,94621.44
2023-09-11T00:32:25.281Z,94612.91
2023-09-11T00:34:52.172Z,94616.59
2023-09-11T00:37:18.587Z,94605.47
2023-09-11T00:39:44.971Z,94599.50
2023-09-11T00:42:11.444Z,94605.09
2023-09-11T00:44:37.899Z,94605.22
2023-09-11T00:47:04.485Z,94607.75
2023-09-11T00:49:30.830Z,94599.06
2023-09-11T00:51:57.482Z,94601.81
2023-09-11T00:54:23.875Z,94599.97
2023-09-11T00:56:50.289Z,94608.00
2023-09-11T00:59:17.004Z,94601.53
2023-09-11T01:01:43.659Z,94608.13
2023-09-11T01:04:10.103Z,94607.00
2023-09-11T01:06:36.460Z,94604.59
2023-09-11T01:09:03.359Z,94606.00
2023-09-11T01:11:29.762Z,94601.34
2023-09-11T01:13:56.412Z,94604.38
2023-09-11T01:16:22.834Z,94605.19
2023-09-11T01:18:49.290Z,94598.91
2023-09-11T01:21:15.642Z,94606.31
2023-09-11T01:23:48.124Z,94604.19
2023-09-11T01:26:17.484Z,94608.03
2023-09-11T01:28:43.776Z,94601.97
2023-09-11T01:31:10.445Z,94600.03
2023-09-11T01:33:37.318Z,94606.63
2023-09-11T01:36:03.767Z,94604.19
2023-09-11T01:38:30.166Z,94600.16
2023-09-11T01:40:58.048Z,94596.94
2023-09-11T01:43:24.419Z,94593.69
2023-09-11T01:45:50.902Z,94598.94
2023-09-11T01:48:17.444Z,94601.69
2023-09-11T01:50:44.190Z,94600.38
2023-09-11T01:53:10.661Z,94592.00
2023-09-11T01:55:37.073Z,94596.47
2023-09-11T01:58:03.416Z,94597.38
2023-09-11T02:00:29.840Z,94601.00
2023-09-11T02:05:23.501Z,94597.59
2023-09-11T02:07:49.903Z,94597.38
2023-09-11T02:10:17.023Z,94601.22
2023-09-11T02:12:43.480Z,94608.28
2023-09-11T02:15:09.911Z,94600.09
2023-09-11T02:17:36.420Z,94602.81
2023-09-11T02:20:05.133Z,94603.34
2023-09-11T02:22:31.527Z,94604.16
2023-09-11T02:24:58.002Z,94607.09
2023-09-11T02:27:24.435Z,94613.25
2023-09-11T02:29:50.868Z,94612.63
2023-09-11T02:32:17.296Z,94611.53
2023-09-11T02:34:43.822Z,94611.25
2023-09-11T02:37:10.315Z,94608.78
2023-09-11T02:39:37.339Z,94622.16
2023-09-11T02:42:03.718Z,94611.75
2023-09-11T02:44:30.184Z,94616.91
2023-09-11T02:46:56.664Z,94611.44
2023-09-11T02:49:23.093Z,94605.47
2023-09-11T02:51:49.452Z,94615.09
2023-09-11T02:54:15.799Z,94603.94
2023-09-11T02:56:42.261Z,94606.16
2023-09-11T02:59:08.774Z,94603.53
2023-09-11T03:01:35.828Z,94595.34
2023-09-11T03:04:02.338Z,94595.44
2023-09-11T03:06:28.787Z,94585.94
2023-09-11T03:08:55.212Z,94586.06
2023-09-11T03:11:22.651Z,94581.22
2023-09-11T03:13:49.382Z,94597.59
2023-09-11T03:16:15.994Z,94598.91
2023-09-11T03:18:42.959Z,94583.84
2023-09-11T03:21:09.880Z,94587.06
2023-09-11T03:23:36.642Z,94594.63
2023-09-11T03:26:03.207Z,94589.19
2023-09-11T03:28:30.123Z,94590.28
2023-09-11T03:30:56.518Z,94589.47
2023-09-11T03:33:23.217Z,94589.78
2023-09-11T03:35:49.838Z,94586.25
2023-09-11T03:38:16.482Z,94585.44
2023-09-11T03:40:44.055Z,94579.69
2023-09-11T03:43:10.543Z,94574.22
2023-09-11T03:45:36.959Z,94580.78
2023-09-11T03:48:03.437Z,94570.69
2023-09-11T03:50:30.012Z,94572.59
2023-09-11T03:52:56.637Z,94576.13
2023-09-11T03:55:23.064Z,94570.19
2023-09-11T03:57:49.427Z,94581.09
2023-09-11T04:00:15.959Z,94572.41
2023-09-11T04:02:42.308Z,94585.25
2023-09-11T04:05:08.747Z,94578.19
2023-09-11T04:07:35.132Z,94581.81
2023-09-11T04:10:01.643Z,94576.66
2023-09-11T04:12:28.295Z,94583.25
2023-09-11T04:14:54.748Z,94578.59
2023-09-11T04:17:21.148Z,94582.63
2023-09-11T04:19:47.501Z,94579.38
2023-09-11T04:22:13.948Z,94581.94
2023-09-11T04:24:40.338Z,94579.81
2023-09-11T04:27:06.797Z,94578.22
2023-09-11T04:29:33.251Z,94572.03
2023-09-11T04:31:59.802Z,94575.38
2023-09-11T04:34:26.734Z,94572.63
2023-09-11T04:36:53.187Z,94572.13
2023-09-11T04:39:20.603Z,94566.69
2023-09-11T04:41:47.062Z,94567.31
2023-09-11T04:44:13.461Z,94560.63
2023-09-11T04:46:40.385Z,94569.63
2023-09-11T04:49:06.858Z,94564.16
2023-09-11T04:51:33.276Z,94570.91
2023-09-11T04:54:00.003Z,94572.56
2023-09-11T04:56:26.466Z,94569.84
2023-09-11T04:58:52.935Z,94571.94
2023-09-11T05:01:19.388Z,94567.91
2023-09-11T05:03:46.007Z,94573.06
2023-09-11T05:06:12.492Z,94571.94
2023-09-11T05:11:08.256Z,94570.91
2023-09-11T05:13:34.642Z,94565.78
2023-09-11T05:16:01.155Z,94566.06
2023-09-11T05:18:27.606Z,94573.75
2023-09-11T05:20:54.184Z,94576.00
2023-09-11T05:23:20.661Z,94572.75
2023-09-11T05:25:47.861Z,94575.19
2023-09-11T05:28:14.399Z,94583.88
2023-09-11T05:30:41.071Z,94581.63
2023-09-11T05:33:07.533Z,94586.22
2023-09-11T05:35:34.097Z,94582.25
2023-09-11T05:38:00.528Z,94582.63
2023-09-11T05:40:26.926Z,94577.41
2023-09-11T05:42:53.293Z,94578.81
2023-09-11T05:45:19.674Z,94575.28
2023-09-11T05:47:46.274Z,94574.34
2023-09-11T05:50:12.838Z,94578.28
2023-09-11T05:52:39.269Z,94574.94
2023-09-11T05:55:05.829Z,94576.09
2023-09-11T05:57:32.189Z,94581.28
2023-09-11T05:59:58.668Z,94574.84
2023-09-11T06:02:25.174Z,94573.44
2023-09-11T06:04:51.612Z,94576.31
2023-09-11T06:07:18.039Z,94581.59
2023-09-11T06:09:44.484Z,94581.72
2023-09-11T06:12:11.084Z,94586.16
2023-09-11T06:14:39.413Z,94581.53
2023-09-11T06:17:06.318Z,94583.09
2023-09-11T06:19:32.797Z,94588.53
2023-09-11T06:21:59.213Z,94585.81
2023-09-11T06:24:25.578Z,94581.22
2023-09-11T06:27:02.908Z,94589.22
2023-09-11T06:29:29.548Z,94594.41
2023-09-11T06:31:55.998Z,94594.28
2023-09-11T06:34:23.132Z,94596.81
2023-09-11T06:36:49.510Z,94596.22
2023-09-11T06:39:16.850Z,94593.31
2023-09-11T06:41:43.407Z,94599.59
2023-09-11T06:44:10.276Z,94602.56
2023-09-11T06:46:36.740Z,94586.69
2023-09-11T06:49:03.376Z,94593.63
2023-09-11T06:51:29.771Z,94593.63
2023-09-11T06:53:56.240Z,94591.16
2023-09-11T06:56:22.658Z,94594.78
2023-09-11T06:58:49.086Z,94594.66
2023-09-11T07:01:15.662Z,94594.16
2023-09-11T07:03:43.802Z,94592.44
2023-09-11T07:06:13.139Z,94585.19
2023-09-11T07:08:39.724Z,94592.13
2023-09-11T07:11:06.452Z,94591.13
2023-09-11T07:13:33.041Z,94586.91
2023-09-11T07:15:59.691Z,94582.88
2023-09-11T07:18:26.279Z,94584.41
2023-09-11T07:20:53.138Z,94578.69
2023-09-11T07:23:19.979Z,94590.81
2023-09-11T07:25:46.777Z,94586.78
2023-09-11T07:28:16.244Z,94583.97
2023-09-11T07:30:43.431Z,94580.53
2023-09-11T07:33:10.344Z,94580.63
2023-09-11T07:35:36.917Z,94583.63
2023-09-11T07:38:03.267Z,94589.53
2023-09-11T07:40:29.596Z,94586.25
2023-09-11T07:42:55.985Z,94583.50
2023-09-11T07:45:22.651Z,94573.53
2023-09-11T07:47:49.082Z,94572.00
2023-09-11T07:50:15.473Z,94574.16
2023-09-11T07:52:41.837Z,94560.84
2023-09-11T07:55:08.364Z,94564.44
2023-09-11T07:57:34.713Z,94574.34
2023-09-11T08:00:05.708Z,94575.03
2023-09-11T08:02:32.174Z,94581.28
2023-09-11T08:04:58.508Z,94572.94
2023-09-11T08:07:24.855Z,94583.03
2023-09-11T08:09:52.700Z,94592.09
2023-09-11T08:12:19.049Z,94589.81
2023-09-11T08:14:45.676Z,94584.94
2023-09-11T08:17:12.857Z,94587.69
2023-09-11T08:19:39.603Z,94581.94
2023-09-11T08:22:05.926Z,94581.88
2023-09-11T08:24:32.270Z,94575.00
2023-09-11T08:26:58.645Z,94573.59
2023-09-11T08:29:25.044Z,94575.00
2023-09-11T08:31:51.395Z,94570.09
2023-09-11T08:34:17.913Z,94573.25
2023-09-11T08:36:46.114Z,94568.38
2023-09-11T08:39:12.697Z,94563.19
2023-09-11T08:41:39.588Z,94565.78
2023-09-11T08:44:06.039Z,94566.25
2023-09-11T08:46:35.343Z,94565.69
2023-09-11T08:49:01.963Z,94566.63
2023-09-11T08:51:36.990Z,94568.09
2023-09-11T08:54:04.522Z,94566.41
2023-09-11T08:56:31.353Z,94566.31
2023-09-11T08:58:57.968Z,94562.22
2023-09-11T09:01:24.358Z,94552.13
2023-09-11T09:03:51.518Z,94555.50
2023-09-11T09:06:18.062Z,94549.88
2023-09-11T09:08:44.635Z,94558.59
2023-09-11T09:11:10.982Z,94542.34
2023-09-11T09:13:37.328Z,94549.00
2023-09-11T09:16:06.724Z,94538.25
2023-09-11T09:18:33.241Z,94535.81
2023-09-11T09:21:00.987Z,94540.56
2023-09-11T09:23:32.126Z,94539.97
2023-09-11T09:26:05.389Z,94540.34
2023-09-11T09:28:34.177Z,94537.44
2023-09-11T09:31:02.757Z,94535.69
2023-09-11T09:33:31.014Z,94542.69
2023-09-11T09:35:57.570Z,94537.44
2023-09-11T09:38:24.073Z,94535.94
2023-09-11T09:40:51.352Z,94533.66
2023-09-11T09:43:18.079Z,94534.59
2023-09-11T09:45:44.567Z,94528.34
2023-09-11T09:48:11.793Z,94532.88
2023-09-11T09:50:47.475Z,94528.97
2023-09-11T09:53:33.134Z,94515.03
2023-09-11T09:56:00.361Z,94524.34
2023-09-11T09:58:29.503Z,94511.25
2023-09-11T10:01:01.781Z,94507.34
2023-09-11T10:03:28.637Z,94509.75
2023-09-11T10:05:55.098Z,94504.97
2023-09-11T10:08:21.517Z,94504.94
2023-09-11T10:10:47.986Z,94503.00
2023-09-11T10:13:14.747Z,94500.19
2023-09-11T10:15:41.834Z,94502.59
2023-09-11T10:18:08.731Z,94491.00
2023-09-11T10:20:35.418Z,94493.41
2023-09-11T10:23:03.637Z,94488.22
2023-09-11T10:25:30.702Z,94483.84
2023-09-11T10:28:09.961Z,94478.66
2023-09-11T10:30:57.890Z,94474.28
2023-09-11T10:33:33.654Z,94471.47
2023-09-11T10:36:01.057Z,94470.66
2023-09-11T10:38:28.470Z,94467.44
2023-09-11T10:40:58.264Z,94465.03
2023-09-11T10:43:24.853Z,94467.41
2023-09-11T10:45:52.588Z,94460.63
2023-09-11T10:48:31.833Z,94451.44
2023-09-11T10:50:59.227Z,94455.34
2023-09-11T10:53:31.667Z,94453.75
2023-09-11T10:56:00.820Z,94451.31
2023-09-11T10:58:27.432Z,94448.94
2023-09-11T11:00:54.693Z,94444.16
2023-09-11T11:03:21.820Z,94446.91
2023-09-11T11:05:48.628Z,94442.50
2023-09-11T11:08:15.724Z,94444.84
2023-09-11T11:10:43.034Z,94440.06
2023-09-11T11:13:09.791Z,94430.53
2023-09-11T11:15:36.848Z,94436.09
2023-09-11T11:18:06.673Z,94425.25
2023-09-11T11:20:34.071Z,94431.63
2023-09-11T11:23:06.785Z,94428.84
2023-09-11T11:25:33.113Z,94427.97
2023-09-11T11:28:07.056Z,94427.91
2023-09-11T11:30:34.927Z,94423.91
2023-09-11T11:33:01.695Z,94413.56
2023-09-11T11:35:28.446Z,94409.19
2023-09-11T11:37:55.084Z,94420.31
2023-09-11T11:40:21.444Z,94407.13
2023-09-11T11:42:47.771Z,94408.25
2023-09-11T11:45:14.151Z,94399.13
2023-09-11T11:47:41.731Z,94410.22
2023-09-11T11:50:08.884Z,94403.03
2023-09-11T11:52:35.608Z,94407.81
2023-09-11T11:55:01.946Z,94408.59
2023-09-11T11:57:28.702Z,94404.59
2023-09-11T11:59:55.087Z,94403.00
2023-09-11T12:02:21.898Z,94400.16
2023-09-11T12:04:50.173Z,94402.94
2023-09-11T12:07:17.273Z,94401.34
2023-09-11T12:09:43.705Z,94404.91
2023-09-11T12:12:10.320Z,94397.69
2023-09-11T12:14:37.718Z,94399.69
2023-09-11T12:17:08.120Z,94396.88
2023-09-11T12:19:34.471Z,94396.47
2023-09-11T12:22:04.023Z,94395.66
2023-09-11T12:24:32.804Z,94391.22
2023-09-11T12:27:00.965Z,94390.75
2023-09-11T12:29:28.557Z,94387.97
2023-09-11T12:31:54.901Z,94388.75
2023-09-11T12:34:21.228Z,94384.38
2023-09-11T12:36:47.589Z,94381.94
2023-09-11T12:39:14.013Z,94384.69
2023-09-11T12:41:40.389Z,94375.94
2023-09-11T12:44:06.779Z,94374.34
2023-09-11T12:46:34.946Z,94362.81
2023-09-11T12:49:01.525Z,94365.53
2023-09-11T12:51:28.062Z,94362.72
2023-09-11T12:53:54.423Z,94352.38
2023-09-11T12:56:21.507Z,94360.31
2023-09-11T12:58:48.467Z,94356.28
2023-09-11T13:01:14.891Z,94362.22
2023-09-11T13:03:45.732Z,94356.22
2023-09-11T13:06:12.535Z,94360.59
2023-09-11T13:08:38.930Z,94355.78
2023-09-11T13:11:05.256Z,94353.81
2023-09-11T13:13:35.529Z,94353.75
2023-09-11T13:16:02.575Z,94351.34
2023-09-11T13:18:29.440Z,94348.16
2023-09-11T13:20:56.104Z,94348.16
2023-09-11T13:23:22.901Z,94345.38
2023-09-11T13:25:49.253Z,94343.38
2023-09-11T13:28:15.698Z,94337.03
2023-09-11T13:30:42.080Z,94336.22
2023-09-11T13:33:08.481Z,94327.09
2023-09-11T13:35:34.890Z,94333.03
2023-09-11T13:38:03.540Z,94330.63
2023-09-11T13:40:29.881Z,94322.66
2023-09-11T13:42:56.215Z,94326.22
2023-09-11T13:45:22.607Z,94320.63
2023-09-11T13:47:50.334Z,94317.03
2023-09-11T13:50:16.771Z,94307.47
2023-09-11T13:52:43.158Z,94314.19
2023-09-11T13:55:09.574Z,94310.19
2023-09-11T13:57:36.148Z,94305.84
2023-09-11T14:00:04.343Z,94306.63
2023-09-11T14:02:30.746Z,94307.00
2023-09-11T14:04:57.492Z,94307.78
2023-09-11T14:07:25.119Z,94306.19
2023-09-11T14:09:51.468Z,94302.19
2023-09-11T14:12:17.886Z,94301.75
2023-09-11T14:14:44.321Z,94297.78
2023-09-11T14:17:10.716Z,94304.09
2023-09-11T14:19:37.072Z,94298.53
2023-09-11T14:22:03.417Z,94307.25
2023-09-11T14:24:30.068Z,94301.69
2023-09-11T14:26:56.473Z,94298.88
2023-09-11T14:29:22.810Z,94302.41
2023-09-11T14:31:50.210Z,94301.56
2023-09-11T14:34:17.038Z,94304.75
2023-09-11T14:36:43.381Z,94304.31
2023-09-11T14:39:09.771Z,94303.91
2023-09-11T14:41:36.290Z,94293.97
2023-09-11T14:44:02.611Z,94288.81
2023-09-11T14:46:29.068Z,94291.19
2023-09-11T14:48:56.077Z,94287.13
2023-09-11T14:51:22.774Z,94295.03
2023-09-11T14:53:49.170Z,94294.22
2023-09-11T14:56:15.521Z,94292.63
2023-09-11T14:58:41.990Z,94295.78
2023-09-11T15:01:09.253Z,94281.91
2023-09-11T15:03:35.713Z,94285.41
2023-09-11T15:06:02.198Z,94279.44
2023-09-11T15:08:28.565Z,94281.38
2023-09-11T15:10:58.599Z,94272.66
2023-09-11T15:13:27.072Z,94282.94
2023-09-11T15:15:54.091Z,94280.56
2023-09-11T15:18:21.168Z,94280.13
2023-09-11T15:20:49.158Z,94277.28
2023-09-11T15:23:15.644Z,94276.09
2023-09-11T15:25:42.088Z,94278.44
2023-09-11T15:28:08.564Z,94272.44
2023-09-11T15:30:38.477Z,94272.03
2023-09-11T15:33:05.560Z,94270.81
2023-09-11T15:35:31.974Z,94268.38
2023-09-11T15:37:58.323Z,94268.34
2023-09-11T15:40:24.659Z,94270.72
2023-09-11T15:42:52.350Z,94265.53
2023-09-11T15:45:18.823Z,94267.09
2023-09-11T15:47:46.183Z,94271.78
2023-09-11T15:50:12.635Z,94263.41
2023-09-11T15:52:39.385Z,94262.63
2023-09-11T15:55:05.721Z,94258.63
2023-09-11T15:57:32.099Z,94257.00
2023-09-11T15:59:58.804Z,94246.63
2023-09-11T16:02:25.231Z,94260.88
2023-09-11T16:04:51.615Z,94258.06
2023-09-11T16:07:17.958Z,94251.69
2023-09-11T16:09:44.278Z,94252.44
2023-09-11T16:12:10.671Z,94253.16
2023-09-11T16:14:37.079Z,94249.97
2023-09-11T16:17:03.543Z,94251.53
2023-09-11T16:19:29.994Z,94251.44
2023-09-11T16:21:56.409Z,94252.22
2023-09-11T16:24:22.908Z,94252.94
2023-09-11T16:26:49.328Z,94251.72
2023-09-11T16:29:15.722Z,94253.25
2023-09-11T16:31:42.223Z,94248.47
2023-09-11T16:34:11.322Z,94255.56
2023-09-11T16:36:37.747Z,94257.88
2023-09-11T16:39:04.097Z,94252.31
2023-09-11T16:41:30.504Z,94249.47
2023-09-11T16:43:57.046Z,94250.25
2023-09-11T16:46:24.003Z,94257.66
2023-09-11T16:48:50.485Z,94254.06
2023-09-11T16:51:16.886Z,94248.47
2023-09-11T16:53:43.321Z,94247.16
2023-09-11T16:56:09.817Z,94240.34
2023-09-11T16:58:36.192Z,94246.97
2023-09-11T17:01:06.669Z,94238.19
2023-09-11T17:03:33.207Z,94239.66
2023-09-11T17:05:59.687Z,94240.00
2023-09-11T17:08:26.034Z,94233.94
2023-09-11T17:10:52.434Z,94240.97
2023-09-11T17:13:20.822Z,94236.09
2023-09-11T17:15:47.693Z,94237.94
2023-09-11T17:18:14.448Z,94240.56
2023-09-11T17:20:41.206Z,94245.97
2023-09-11T17:23:07.554Z,94245.00
2023-09-11T17:25:34.692Z,94238.09
2023-09-11T17:28:01.020Z,94238.78
2023-09-11T17:30:27.506Z,94246.13
2023-09-11T17:32:54.031Z,94242.78
2023-09-11T17:35:20.511Z,94240.25
2023-09-11T17:37:46.836Z,94246.78
2023-09-11T17:40:13.171Z,94256.00
2023-09-11T17:42:39.809Z,94243.75
2023-09-11T17:45:06.489Z,94244.50
2023-09-11T17:47:32.934Z,94240.97
2023-09-11T17:49:59.325Z,94246.50
2023-09-11T17:52:26.163Z,94254.34
2023-09-11T17:54:52.561Z,94253.19
2023-09-11T17:57:19.930Z,94255.19
2023-09-11T17:59:46.299Z,94250.91
2023-09-11T18:02:12.628Z,94258.91
2023-09-11T18:04:40.392Z,94254.25
2023-09-11T18:07:08.193Z,94257.06
2023-09-11T18:09:34.573Z,94256.84
2023-09-11T18:12:01.019Z,94261.69
2023-09-11T18:14:27.382Z,94261.50
2023-09-11T18:16:53.877Z,94263.34
2023-09-11T18:19:20.912Z,94268.66
2023-09-11T18:21:47.262Z,94276.25
2023-09-11T18:24:13.639Z,94270.06
2023-09-11T18:26:40.358Z,94277.66
2023-09-11T18:29:32.844Z,94282.09
2023-09-11T18:31:59.177Z,94282.25
2023-09-11T18:34:25.751Z,94286.38
2023-09-11T18:36:52.203Z,94278.69
2023-09-11T18:39:23.446Z,94293.38
2023-09-11T18:41:53.916Z,94294.41
2023-09-11T18:44:20.350Z,94296.25
2023-09-11T18:46:46.687Z,94286.25
2023-09-11T18:49:13.550Z,94291.09
2023-09-11T18:51:41.646Z,94296.34
2023-09-11T18:54:10.030Z,94293.66
2023-09-11T18:56:37.971Z,94291.47
2023-09-11T18:59:04.335Z,94298.66
2023-09-11T19:01:32.008Z,94306.69
2023-09-11T19:03:58.491Z,94300.13
2023-09-11T19:06:24.937Z,94300.34
2023-09-11T19:08:51.360Z,94304.47
2023-09-11T19:11:17.733Z,94303.06
2023-09-11T19:13:44.079Z,94311.84
2023-09-11T19:16:10.517Z,94318.69
2023-09-11T19:18:38.270Z,94316.28
2023-09-11T19:21:05.503Z,94318.06
2023-09-11T19:23:33.107Z,94318.59
2023-09-11T19:26:00.782Z,94312.53
2023-09-11T19:28:30.346Z,94316.63
2023-09-11T19:30:56.724Z,94312.44
2023-09-11T19:33:23.117Z,94308.78
2023-09-11T19:35:49.579Z,94319.13
2023-09-11T19:38:16.386Z,94318.09
2023-09-11T19:40:43.446Z,94314.25
2023-09-11T19:43:09.776Z,94313.31
2023-09-11T19:45:36.200Z,94319.34
2023-09-11T19:48:02.735Z,94316.44
2023-09-11T19:50:29.096Z,94311.94
2023-09-11T19:52:55.478Z,94324.38
2023-09-11T19:55:21.918Z,94323.91
2023-09-11T19:57:49.197Z,94325.69
2023-09-11T20:00:15.668Z,94322.81
2023-09-11T20:02:42.182Z,94317.53
2023-09-11T20:05:08.694Z,94325.94
2023-09-11T20:07:35.377Z,94320.66
2023-09-11T20:10:04.846Z,94311.81
2023-09-11T20:12:32.912Z,94311.50
2023-09-11T20:14:59.372Z,94323.81
2023-09-11T20:17:25.725Z,94319.00
2023-09-11T20:19:52.061Z,94325.09
2023-09-11T20:22:19.194Z,94323.69
2023-09-11T20:24:45.724Z,94323.88
2023-09-11T20:27:12.358Z,94332.41
2023-09-11T20:29:38.734Z,94330.81
2023-09-11T20:32:05.653Z,94324.84
2023-09-11T20:34:32.495Z,94318.41
2023-09-11T20:36:58.872Z,94317.25
2023-09-11T20:39:25.756Z,94323.41
2023-09-11T20:41:52.296Z,94322.75
2023-09-11T20:44:18.866Z,94322.28
2023-09-11T20:46:45.256Z,94322.63
2023-09-11T20:49:11.594Z,94326.81
2023-09-11T20:51:37.967Z,94323.75
2023-09-11T20:54:04.686Z,94324.41
2023-09-11T20:56:31.403Z,94323.13
2023-09-11T20:58:57.737Z,94328.28
2023-09-11T21:01:24.124Z,94331.03
2023-09-11T21:03:50.854Z,94331.03
2023-09-11T21:06:17.405Z,94331.69
2023-09-11T21:08:44.210Z,94332.78
2023-09-11T21:11:10.767Z,94327.97
2023-09-11T21:13:37.111Z,94329.75
2023-09-11T21:16:03.667Z,94326.88
2023-09-11T21:18:30.378Z,94338.97
2023-09-11T21:20:56.824Z,94336.84
2023-09-11T21:23:23.187Z,94339.09
2023-09-11T21:25:49.994Z,94335.91
2023-09-11T21:28:16.321Z,94341.56
2023-09-11T21:30:42.685Z,94328.81
2023-09-11T21:33:09.086Z,94334.28
2023-09-11T21:35:35.595Z,94329.13
2023-09-11T21:38:01.947Z,94330.13
2023-09-11T21:40:28.385Z,94326.25
2023-09-11T21:42:54.718Z,94328.84
2023-09-11T21:45:21.242Z,94325.94
2023-09-11T21:47:47.983Z,94329.63
2023-09-11T21:50:14.371Z,94314.16
2023-09-11T21:52:40.723Z,94321.09
2023-09-11T21:55:07.492Z,94315.13
2023-09-11T21:57:34.169Z,94319.66
2023-09-11T22:00:00.696Z,94321.72
2023-09-11T22:02:27.194Z,94318.19
2023-09-11T22:04:53.578Z,94315.63
2023-09-11T22:07:19.924Z,94309.97
2023-09-11T22:09:46.262Z,94324.31
2023-09-11T22:12:13.394Z,94327.19
2023-09-11T22:14:40.061Z,94325.75
2023-09-11T22:17:06.506Z,94320.78
2023-09-11T22:19:32.841Z,94316.91
2023-09-11T22:21:59.194Z,94314.19
2023-09-11T22:24:25.583Z,94318.66
2023-09-11T22:26:51.986Z,94316.09
2023-09-11T22:29:18.331Z,94312.09
2023-09-11T22:31:44.664Z,94314.66
2023-09-11T22:34:11.071Z,94316.41
2023-09-11T22:36:37.526Z,94313.53
2023-09-11T22:39:04.060Z,94306.91
2023-09-11T22:41:30.423Z,94308.84
2023-09-11T22:43:56.877Z,94315.44
2023-09-11T22:46:23.262Z,94319.31
2023-09-11T22:48:49.607Z,94320.44
2023-09-11T22:51:15.973Z,94321.56
2023-09-11T22:53:42.309Z,94329.78
2023-09-11T22:56:08.643Z,94324.78
2023-09-11T22:58:34.995Z,94333.78
2023-09-11T23:01:07.344Z,94330.09
2023-09-11T23:03:43.658Z,94320.28
2023-09-11T23:06:10.290Z,94322.53
2023-09-11T23:08:36.655Z,94313.69
2023-09-11T23:11:02.996Z,94318.97
2023-09-11T23:13:29.378Z,94316.06
2023-09-11T23:15:56.689Z,94319.31
2023-09-11T23:18:23.077Z,94321.56
2023-09-11T23:20:49.701Z,94330.38
2023-09-11T23:23:16.497Z,94326.69
2023-09-11T23:25:44.545Z,94321.66
2023-09-11T23:28:10.880Z,94318.25
2023-09-11T23:30:37.510Z,94321.94
2023-09-11T23:33:04.074Z,94319.06
2023-09-11T23:35:30.460Z,94323.19
2023-09-11T23:37:56.804Z,94324.84
2023-09-11T23:40:23.148Z,94329.97
2023-09-11T23:42:49.501Z,94321.59
2023-09-11T23:45:15.872Z,94323.03
2023-09-11T23:47:42.250Z,94328.50
2023-09-11T23:50:08.759Z,94327.22
2023-09-11T23:52:35.104Z,94328.34
2023-09-11T23:55:01.970Z,94329.63
2023-09-11T23:57:28.349Z,94323.84
2023-09-11T23:59:54.770Z,94332.84
